Time;durP1;ratioP1;P1;durP2;ratioP2;P2;SDS_P1;SDS_P2;PMS_P1;PMS_P2;Temp;Humidity;BMP_temperature;BMP_pressure;BME280_temperature;BME280_humidity;BME280_pressure;Samples;Min_cycle;Max_cycle;Signal;HPM_P1;HPM_P2
2022/09/04 00:00:09;;;;;;;17.08;6.20;;;19.20;99.90;;;;;;4995349;28;20022;-71
2022/09/04 00:03:01;;;;;;;9.43;5.22;;;19.10;99.90;;;;;;4995243;28;20018;-68
2022/09/04 00:05:45;;;;;;;9.38;5.00;;;19.10;99.90;;;;;;4995274;28;20033;-67
2022/09/04 00:08:52;;;;;;;10.65;5.68;;;19.10;99.90;;;;;;4993127;28;20014;-68
2022/09/04 00:11:51;;;;;;;9.52;4.88;;;19.10;99.90;;;;;;4993818;28;20554;-70
2022/09/04 00:14:41;;;;;;;9.38;5.30;;;19.10;99.90;;;;;;4993590;28;20027;-69
2022/09/04 00:17:24;;;;;;;11.18;5.18;;;19.10;99.90;;;;;;4994762;28;20053;-67
2022/09/04 00:20:00;;;;;;;10.02;4.90;;;19.10;99.90;;;;;;4992681;28;20105;-67
2022/09/04 00:22:51;;;;;;;11.35;5.28;;;19.10;99.90;;;;;;4993513;28;20030;-68
2022/09/04 00:26:01;;;;;;;10.13;5.45;;;19.10;99.90;;;;;;4993737;28;20011;-67
2022/09/04 00:28:44;;;;;;;14.20;5.38;;;19.10;99.90;;;;;;4972738;28;20110;-70
2022/09/04 00:31:28;;;;;;;9.70;5.97;;;19.10;99.90;;;;;;4990108;28;20030;-69
2022/09/04 00:34:06;;;;;;;8.75;5.10;;;19.00;99.90;;;;;;4995855;28;20367;-70
2022/09/04 00:36:35;;;;;;;10.15;5.40;;;19.00;99.90;;;;;;4995218;28;20030;-68
2022/09/04 00:39:26;;;;;;;9.30;5.18;;;19.00;99.90;;;;;;4995052;28;20142;-67
2022/09/04 00:42:04;;;;;;;12.82;5.72;;;19.00;99.90;;;;;;4995845;28;20161;-68
2022/09/04 00:44:54;;;;;;;10.73;5.60;;;19.00;99.90;;;;;;4996048;28;20037;-68
2022/09/04 00:47:38;;;;;;;10.30;5.47;;;19.00;99.90;;;;;;4995850;28;20022;-68
2022/09/04 00:50:30;;;;;;;11.50;5.35;;;19.00;99.90;;;;;;4995842;28;20037;-68
2022/09/04 00:53:26;;;;;;;11.57;5.28;;;19.00;99.90;;;;;;4995787;28;20031;-70
2022/09/04 00:56:16;;;;;;;8.88;5.45;;;18.90;99.90;;;;;;4995749;28;20034;-68
2022/09/04 00:59:14;;;;;;;8.70;5.72;;;18.90;99.90;;;;;;4996151;28;20034;-67
2022/09/04 01:01:43;;;;;;;11.18;5.72;;;18.90;99.90;;;;;;4976326;28;20044;-70
2022/09/04 01:04:17;;;;;;;10.93;5.93;;;18.90;99.90;;;;;;4976005;28;20023;-67
2022/09/04 01:06:50;;;;;;;15.02;6.32;;;18.90;99.90;;;;;;4975888;28;20023;-68
2022/09/04 01:09:53;;;;;;;10.23;6.35;;;18.90;99.90;;;;;;4975788;28;20070;-68
2022/09/04 01:12:50;;;;;;;14.52;6.05;;;18.90;99.90;;;;;;4975824;28;20022;-70
2022/09/04 01:15:33;;;;;;;9.60;5.50;;;18.90;99.90;;;;;;4975650;28;20061;-67
2022/09/04 01:18:10;;;;;;;13.52;6.18;;;18.90;99.90;;;;;;4975704;28;20037;-67
2022/09/04 01:20:47;;;;;;;11.13;5.97;;;18.80;99.90;;;;;;4975562;28;20026;-67
2022/09/04 01:23:20;;;;;;;14.80;7.13;;;18.80;99.90;;;;;;4975243;28;20089;-70
2022/09/04 01:26:05;;;;;;;14.40;6.68;;;18.70;99.90;;;;;;4975280;28;20019;-67
2022/09/04 01:29:06;;;;;;;15.40;7.50;;;18.70;99.90;;;;;;4974861;28;20030;-68
2022/09/04 01:32:08;;;;;;;13.52;7.07;;;18.70;99.90;;;;;;4975091;28;20354;-67
2022/09/04 01:34:41;;;;;;;11.00;6.82;;;18.70;99.90;;;;;;4974816;28;20472;-70
2022/09/04 01:37:26;;;;;;;10.30;7.28;;;18.60;99.90;;;;;;4974888;28;20019;-68
2022/09/04 01:40:20;;;;;;;14.93;7.30;;;18.60;99.90;;;;;;4975273;28;20472;-66
2022/09/04 01:43:03;;;;;;;15.15;8.23;;;18.60;99.90;;;;;;4973588;28;20031;-65
2022/09/04 01:45:45;;;;;;;14.45;9.02;;;18.60;99.90;;;;;;4974933;28;20033;-68
2022/09/04 01:48:15;;;;;;;15.07;9.32;;;18.50;99.90;;;;;;4975058;28;20117;-68
2022/09/04 01:50:45;;;;;;;18.33;9.30;;;18.50;99.90;;;;;;4974628;28;20369;-67
2022/09/04 01:53:19;;;;;;;17.88;8.98;;;18.50;99.90;;;;;;4975372;28;20066;-68
2022/09/04 01:56:27;;;;;;;15.77;9.13;;;18.50;99.90;;;;;;4974788;28;20030;-69
2022/09/04 01:58:58;;;;;;;16.30;9.68;;;18.50;99.90;;;;;;4974835;28;20475;-67
2022/09/04 02:01:51;;;;;;;15.80;10.10;;;18.50;99.90;;;;;;4992659;28;20014;-68
2022/09/04 02:04:22;;;;;;;17.00;10.82;;;18.50;99.90;;;;;;4993517;28;20042;-68
2022/09/04 02:06:54;;;;;;;17.13;10.38;;;18.40;99.90;;;;;;4994283;28;20027;-70
2022/09/04 02:09:50;;;;;;;15.73;11.27;;;18.40;99.90;;;;;;4993930;28;20038;-68
2022/09/04 02:12:41;;;;;;;17.55;10.57;;;18.40;99.90;;;;;;4994015;28;20087;-67
2022/09/04 02:15:15;;;;;;;17.08;10.90;;;18.40;99.90;;;;;;4994095;28;20101;-67
2022/09/04 02:18:13;;;;;;;16.42;11.25;;;18.40;99.90;;;;;;4993980;28;20361;-69
2022/09/04 02:20:51;;;;;;;27.33;11.43;;;18.30;99.90;;;;;;4993869;28;20054;-68
2022/09/04 02:23:31;;;;;;;19.17;11.13;;;18.40;99.90;;;;;;4993808;28;20045;-68
2022/09/04 02:26:06;;;;;;;17.00;11.15;;;18.30;99.90;;;;;;4993761;28;20034;-67
2022/09/04 02:28:57;;;;;;;18.35;11.43;;;18.30;99.90;;;;;;4993887;28;20064;-68
2022/09/04 02:31:37;;;;;;;17.55;11.73;;;18.30;99.90;;;;;;4974372;28;20110;-68
2022/09/04 02:34:30;;;;;;;22.15;12.15;;;18.30;99.90;;;;;;4972945;28;20023;-68
2022/09/04 02:37:12;;;;;;;21.15;12.20;;;18.30;99.90;;;;;;4974322;28;20119;-67
2022/09/04 02:39:49;;;;;;;20.25;12.65;;;18.30;99.90;;;;;;4974257;28;20374;-68
2022/09/04 02:42:20;;;;;;;20.10;12.82;;;18.30;99.90;;;;;;4973969;28;20450;-68
2022/09/04 02:45:04;;;;;;;20.30;12.57;;;18.30;99.90;;;;;;4974115;28;20027;-70
2022/09/04 02:47:41;;;;;;;20.20;12.82;;;18.30;99.90;;;;;;4973473;28;20034;-68
2022/09/04 02:50:07;;;;;;;21.33;12.60;;;18.30;99.90;;;;;;4986266;28;20053;-68
2022/09/04 02:52:51;;;;;;;19.95;12.50;;;18.30;99.90;;;;;;4990757;28;20429;-66
2022/09/04 02:55:38;;;;;;;20.52;12.73;;;18.30;99.90;;;;;;4989953;28;20072;-67
2022/09/04 02:58:42;;;;;;;20.25;13.15;;;18.30;99.90;;;;;;4988887;28;20062;-67
2022/09/04 03:01:29;;;;;;;22.73;13.70;;;18.20;99.90;;;;;;4989110;28;20022;-70
2022/09/04 03:04:21;;;;;;;26.00;14.45;;;18.20;99.90;;;;;;4990795;28;20042;-67
2022/09/04 03:06:55;;;;;;;23.10;13.57;;;18.20;99.90;;;;;;4993382;28;20030;-68
2022/09/04 03:09:28;;;;;;;21.45;13.27;;;18.20;99.90;;;;;;4992740;28;20046;-68
2022/09/04 03:12:04;;;;;;;22.85;13.77;;;18.10;99.90;;;;;;4992853;28;20464;-68
2022/09/04 03:14:42;;;;;;;20.10;13.63;;;18.10;99.90;;;;;;4990894;28;20461;-69
2022/09/04 03:17:52;;;;;;;22.45;12.88;;;18.10;99.90;;;;;;4992044;28;20026;-69
2022/09/04 03:20:31;;;;;;;21.08;13.45;;;18.10;99.90;;;;;;4976603;28;20482;-67
2022/09/04 03:23:08;;;;;;;20.33;14.15;;;18.10;99.90;;;;;;4993070;28;20034;-67
2022/09/04 03:25:43;;;;;;;25.02;14.77;;;18.10;99.90;;;;;;4992751;28;20029;-67
2022/09/04 03:28:24;;;;;;;22.00;15.15;;;18.00;99.90;;;;;;4992965;28;20076;-67
2022/09/04 03:30:52;;;;;;;23.23;14.63;;;18.00;99.90;;;;;;4993063;28;20531;-67
2022/09/04 03:33:30;;;;;;;22.17;14.27;;;18.00;99.90;;;;;;4992705;28;20026;-70
2022/09/04 03:36:25;;;;;;;20.90;14.30;;;18.00;99.90;;;;;;4992704;28;20014;-68
2022/09/04 03:39:13;;;;;;;22.08;13.98;;;18.00;99.90;;;;;;4992813;28;20022;-67
2022/09/04 03:41:48;;;;;;;20.70;14.43;;;18.00;99.90;;;;;;4992798;28;20026;-69
2022/09/04 03:44:21;;;;;;;26.83;15.00;;;18.00;99.90;;;;;;4992652;28;20456;-68
2022/09/04 03:47:12;;;;;;;22.40;14.15;;;18.00;99.90;;;;;;4992647;28;20050;-69
2022/09/04 03:50:09;;;;;;;25.70;15.65;;;17.90;99.90;;;;;;4992449;28;20461;-67
2022/09/04 03:53:02;;;;;;;23.17;16.13;;;17.90;99.90;;;;;;4992230;28;20050;-67
2022/09/04 03:55:55;;;;;;;26.42;16.02;;;17.90;99.90;;;;;;4992807;28;20026;-70
2022/09/04 03:58:49;;;;;;;27.85;16.80;;;17.90;99.90;;;;;;4991898;28;20026;-66
2022/09/04 04:01:44;;;;;;;23.15;15.93;;;17.90;99.90;;;;;;4992374;28;20107;-67
2022/09/04 04:04:24;;;;;;;24.17;16.13;;;17.90;99.90;;;;;;4992688;28;20029;-67
2022/09/04 04:07:07;;;;;;;25.13;16.33;;;17.80;99.90;;;;;;4991863;28;20103;-71
2022/09/04 04:09:41;;;;;;;24.45;16.80;;;17.80;99.90;;;;;;4992111;28;20049;-67
2022/09/04 04:12:26;;;;;;;23.48;16.42;;;17.80;99.90;;;;;;4992359;28;20022;-67
2022/09/04 04:15:15;;;;;;;26.45;16.98;;;17.80;99.90;;;;;;4992316;28;20084;-70
2022/09/04 04:18:12;;;;;;;23.67;16.00;;;17.70;99.90;;;;;;4992149;28;20411;-68
2022/09/04 04:21:00;;;;;;;23.30;16.00;;;17.70;99.90;;;;;;4992250;28;20050;-68
2022/09/04 04:23:55;;;;;;;24.88;17.02;;;17.70;99.90;;;;;;4991901;28;20164;-70
2022/09/04 04:26:37;;;;;;;26.02;17.88;;;17.70;99.90;;;;;;4992344;28;20109;-67
2022/09/04 04:29:02;;;;;;;28.83;17.93;;;17.70;99.90;;;;;;4995317;28;20018;-67
2022/09/04 04:32:16;;;;;;;25.15;17.08;;;17.70;99.90;;;;;;4995883;28;20449;-67
2022/09/04 04:34:45;;;;;;;25.50;17.67;;;17.60;99.90;;;;;;4994303;28;20034;-70
2022/09/04 04:37:20;;;;;;;26.20;17.40;;;17.60;99.90;;;;;;4995773;28;20030;-66
2022/09/04 04:40:08;;;;;;;27.52;18.77;;;17.60;99.90;;;;;;4995858;28;20353;-69
2022/09/04 04:43:00;;;;;;;26.15;18.25;;;17.60;99.90;;;;;;4995646;28;20038;-68
2022/09/04 04:48:42;;;;;;;27.20;19.13;;;17.60;99.90;;;;;;4995282;28;20092;-67
2022/09/04 04:51:39;;;;;;;29.42;19.63;;;17.60;99.90;;;;;;4995490;28;20032;-67
2022/09/04 04:54:16;;;;;;;30.65;18.80;;;17.50;99.90;;;;;;4995403;28;20026;-67
2022/09/04 04:57:19;;;;;;;29.08;19.38;;;17.50;99.90;;;;;;4993773;28;20037;-68
2022/09/04 05:00:10;;;;;;;25.92;18.27;;;17.50;99.90;;;;;;4991949;28;20088;-66
2022/09/04 05:03:08;;;;;;;26.63;18.30;;;17.50;99.90;;;;;;4993849;28;20444;-67
2022/09/04 05:06:01;;;;;;;27.35;19.00;;;17.50;99.90;;;;;;4994967;28;20049;-68
2022/09/04 05:08:38;;;;;;;26.67;18.50;;;17.40;99.90;;;;;;4995339;28;20038;-69
2022/09/04 05:11:16;;;;;;;26.65;18.33;;;17.40;99.90;;;;;;4995532;28;20046;-67
2022/09/04 05:14:27;;;;;;;28.30;20.50;;;17.50;99.90;;;;;;4995380;28;20025;-69
2022/09/04 05:17:30;;;;;;;27.00;18.77;;;17.50;99.90;;;;;;4993794;28;20034;-69
2022/09/04 05:20:25;;;;;;;31.67;20.20;;;17.50;99.90;;;;;;4992919;28;20026;-67
2022/09/04 05:23:09;;;;;;;28.75;19.52;;;17.60;99.90;;;;;;4992137;28;20456;-67
2022/09/04 05:26:13;;;;;;;29.58;19.63;;;17.60;99.90;;;;;;4993417;28;20109;-69
2022/09/04 05:29:03;;;;;;;30.50;19.77;;;17.60;99.90;;;;;;4983788;28;20543;-70
2022/09/04 05:32:06;;;;;;;30.05;19.80;;;17.70;99.90;;;;;;4995162;28;20025;-67
2022/09/04 05:34:56;;;;;;;29.17;19.40;;;17.70;99.90;;;;;;4995029;28;20077;-69
2022/09/04 05:37:30;;;;;;;28.10;20.08;;;17.70;99.90;;;;;;4995028;28;20326;-67
2022/09/04 05:40:14;;;;;;;29.95;20.45;;;17.70;99.90;;;;;;4992793;28;20449;-68
2022/09/04 05:42:58;;;;;;;28.73;20.23;;;17.80;99.90;;;;;;4995009;28;20679;-66
2022/09/04 05:45:44;;;;;;;30.50;20.25;;;17.80;99.90;;;;;;4995088;28;20428;-68
2022/09/04 05:48:36;;;;;;;30.38;20.83;;;17.90;99.90;;;;;;4994815;28;20046;-70
2022/09/04 05:51:21;;;;;;;35.75;23.08;;;18.00;99.90;;;;;;4994918;28;20444;-67
2022/09/04 05:54:05;;;;;;;29.30;20.77;;;18.10;99.90;;;;;;4994671;28;20029;-68
2022/09/04 05:56:31;;;;;;;29.67;19.92;;;18.20;99.90;;;;;;4994513;28;20025;-66
2022/09/04 05:59:22;;;;;;;29.60;20.95;;;18.20;99.90;;;;;;4993367;28;20018;-67
2022/09/04 06:02:03;;;;;;;32.08;19.90;;;18.30;99.90;;;;;;4994812;28;20480;-69
2022/09/04 06:04:31;;;;;;;29.13;21.15;;;18.40;99.90;;;;;;4994122;28;20030;-67
2022/09/04 06:07:24;;;;;;;28.85;20.60;;;18.50;99.90;;;;;;4994551;28;20033;-68
2022/09/04 06:10:12;;;;;;;27.50;20.65;;;18.50;99.90;;;;;;4994258;28;20068;-66
2022/09/04 06:12:59;;;;;;;30.02;22.45;;;18.60;99.90;;;;;;4993168;28;20026;-67
2022/09/04 06:15:50;;;;;;;28.90;21.73;;;18.70;99.90;;;;;;4994300;28;20113;-68
2022/09/04 06:18:34;;;;;;;29.45;21.60;;;18.70;99.90;;;;;;4994129;28;20030;-67
2022/09/04 06:21:20;;;;;;;27.20;20.15;;;18.90;99.90;;;;;;4994321;28;20034;-67
2022/09/04 06:24:05;;;;;;;29.65;21.35;;;18.90;99.90;;;;;;4994119;28;20472;-68
2022/09/04 06:26:54;;;;;;;30.08;21.52;;;19.00;99.90;;;;;;4982793;28;20031;-72
2022/09/04 06:29:47;;;;;;;31.40;21.98;;;19.20;99.90;;;;;;4994478;28;20027;-68
2022/09/04 06:32:37;;;;;;;33.58;22.38;;;19.30;99.90;;;;;;4993558;28;20034;-67
2022/09/04 06:35:17;;;;;;;29.77;21.52;;;19.40;99.90;;;;;;4993930;28;20037;-68
2022/09/04 06:38:26;;;;;;;30.77;22.42;;;19.50;99.90;;;;;;4993958;28;20513;-67
2022/09/04 06:41:07;;;;;;;31.73;22.13;;;19.70;99.90;;;;;;4989222;28;20038;-68
2022/09/04 06:43:41;;;;;;;31.50;23.00;;;19.90;99.90;;;;;;4993331;28;20041;-67
2022/09/04 06:46:55;;;;;;;30.95;22.45;;;20.00;99.90;;;;;;4993868;28;20034;-70
2022/09/04 06:50:09;;;;;;;32.35;21.98;;;20.20;99.90;;;;;;4971506;28;20035;-67
2022/09/04 06:52:52;;;;;;;30.42;22.42;;;20.30;99.90;;;;;;4994084;28;20428;-70
2022/09/04 06:55:52;;;;;;;31.38;23.35;;;20.50;99.90;;;;;;4993796;28;20400;-70
2022/09/04 06:58:17;;;;;;;31.63;22.83;;;20.70;99.90;;;;;;4993520;28;20026;-66
2022/09/04 07:00:57;;;;;;;34.80;24.58;;;20.80;99.90;;;;;;4993463;28;20023;-67
2022/09/04 07:03:34;;;;;;;31.52;23.40;;;21.00;99.90;;;;;;4993189;28;20125;-66
2022/09/04 07:06:19;;;;;;;34.60;23.65;;;21.20;99.90;;;;;;4993339;28;20077;-69
2022/09/04 07:09:06;;;;;;;33.75;24.27;;;21.40;99.90;;;;;;4993280;28;20105;-69
2022/09/04 07:12:02;;;;;;;31.27;23.23;;;21.60;99.90;;;;;;4993343;28;20480;-69
2022/09/04 07:14:58;;;;;;;32.28;23.98;;;21.80;99.90;;;;;;4993339;28;20360;-67
2022/09/04 07:17:30;;;;;;;35.15;23.73;;;22.00;99.90;;;;;;4992934;28;20104;-66
2022/09/04 07:19:55;;;;;;;;;;;22.30;99.90;;;;;;4993633;28;20110;-70
2022/09/04 07:22:41;;;;;;;33.00;24.67;;;22.50;99.90;;;;;;4993179;28;20004;-68
2022/09/04 07:25:17;;;;;;;30.88;23.58;;;22.70;99.90;;;;;;4993088;28;20459;-69
2022/09/04 07:28:01;;;;;;;31.85;23.75;;;23.00;99.90;;;;;;4993271;28;20018;-69
2022/09/04 07:30:35;;;;;;;31.02;24.42;;;23.20;99.90;;;;;;4993427;28;20029;-67
2022/09/04 07:33:26;;;;;;;33.28;25.30;;;23.60;99.90;;;;;;4991638;28;20469;-67
2022/09/04 07:36:24;;;;;;;31.08;23.98;;;24.20;99.90;;;;;;4993280;28;20022;-68
2022/09/04 07:39:38;;;;;;;33.03;23.40;;;24.90;99.90;;;;;;4991581;28;20053;-67
2022/09/04 07:42:12;;;;;;;31.42;23.67;;;25.40;98.80;;;;;;4970536;28;20162;-67
2022/09/04 07:44:40;;;;;;;28.17;22.83;;;26.20;97.90;;;;;;4971090;28;20038;-68
2022/09/04 07:47:13;;;;;;;30.17;22.00;;;26.80;97.10;;;;;;4982555;28;20085;-67
2022/09/04 07:49:51;;;;;;;27.55;22.77;;;27.30;95.30;;;;;;4992793;28;20027;-70
2022/09/04 07:52:54;;;;;;;31.52;21.98;;;27.80;94.70;;;;;;4992521;28;20479;-65
2022/09/04 07:55:33;;;;;;;25.73;20.80;;;28.50;93.70;;;;;;4992454;28;20026;-67
2022/09/04 07:58:18;;;;;;;26.92;21.38;;;29.30;92.50;;;;;;4992850;28;20029;-68
2022/09/04 08:01:03;;;;;;;27.63;21.55;;;30.10;91.20;;;;;;4992598;28;20046;-67
2022/09/04 08:03:53;;;;;;;25.67;19.00;;;30.80;90.70;;;;;;4995094;28;20066;-67
2022/09/04 08:06:28;;;;;;;26.75;19.67;;;31.50;88.80;;;;;;4992271;28;20022;-66
2022/09/04 08:09:13;;;;;;;24.75;18.77;;;32.00;86.10;;;;;;4996297;28;20031;-66
2022/09/04 08:11:52;;;;;;;28.50;18.85;;;32.70;85.20;;;;;;4996462;28;20061;-67
2022/09/04 08:14:27;;;;;;;24.15;18.50;;;33.20;83.20;;;;;;4996458;28;20532;-67
2022/09/04 08:17:05;;;;;;;23.98;17.50;;;33.60;82.10;;;;;;4994929;28;20027;-67
2022/09/04 08:20:01;;;;;;;26.45;17.60;;;33.90;81.20;;;;;;4996370;28;20081;-70
2022/09/04 08:22:48;;;;;;;23.50;18.25;;;34.10;80.10;;;;;;4996454;28;20045;-67
2022/09/04 08:25:27;;;;;;;22.95;16.92;;;34.00;79.60;;;;;;4996055;28;20030;-68
2022/09/04 08:28:19;;;;;;;23.20;17.50;;;34.10;79.40;;;;;;4996403;28;20038;-67
2022/09/04 08:31:03;;;;;;;23.85;17.83;;;34.30;78.50;;;;;;4996328;28;20030;-69
2022/09/04 08:33:52;;;;;;;23.05;17.35;;;34.40;78.40;;;;;;4995893;28;20022;-66
2022/09/04 08:36:33;;;;;;;21.55;16.33;;;34.50;77.80;;;;;;4996076;28;20481;-67
2022/09/04 08:39:05;;;;;;;23.07;16.73;;;34.60;76.70;;;;;;4995902;28;20077;-67
2022/09/04 08:42:08;;;;;;;24.55;17.67;;;34.60;76.70;;;;;;4995947;28;20037;-67
2022/09/04 08:44:55;;;;;;;22.60;17.83;;;34.70;76.70;;;;;;4995925;28;20476;-68
2022/09/04 08:47:34;;;;;;;23.50;17.42;;;34.60;76.50;;;;;;4995728;28;20026;-67
2022/09/04 08:50:15;;;;;;;23.25;18.02;;;34.50;76.80;;;;;;4995694;28;20346;-66
2022/09/04 08:53:04;;;;;;;25.52;18.00;;;34.70;76.70;;;;;;4995796;28;20029;-67
2022/09/04 08:55:45;;;;;;;23.65;17.63;;;35.00;75.80;;;;;;4995476;28;20026;-68
2022/09/04 08:58:35;;;;;;;23.63;17.73;;;35.10;75.20;;;;;;4993513;28;20480;-67
2022/09/04 09:01:37;;;;;;;22.67;16.80;;;35.10;76.00;;;;;;4994076;28;20074;-68
2022/09/04 09:04:37;;;;;;;25.52;17.17;;;35.50;75.20;;;;;;4984608;28;20045;-66
2022/09/04 09:07:12;;;;;;;22.42;17.33;;;36.10;73.80;;;;;;4994484;28;20022;-69
2022/09/04 09:10:13;;;;;;;22.08;17.58;;;36.60;72.60;;;;;;4994451;28;20045;-67
2022/09/04 09:12:58;;;;;;;;;;;36.70;72.00;;;;;;4987171;28;20034;-66
2022/09/04 09:15:33;;;;;;;21.52;15.80;;;36.80;71.40;;;;;;4993417;28;19909;-66
2022/09/04 09:18:27;;;;;;;22.35;16.40;;;36.60;71.30;;;;;;4993700;28;20460;-67
2022/09/04 09:21:08;;;;;;;20.42;15.95;;;36.70;71.20;;;;;;4993242;28;20170;-68
2022/09/04 09:23:50;;;;;;;21.15;16.67;;;36.90;71.30;;;;;;4992986;28;20100;-67
2022/09/04 09:26:29;;;;;;;21.92;17.30;;;36.70;70.90;;;;;;4993532;28;20090;-69
2022/09/04 09:29:20;;;;;;;21.38;16.17;;;36.70;70.70;;;;;;4995415;28;20023;-68
2022/09/04 09:32:19;;;;;;;23.00;17.55;;;36.80;70.50;;;;;;4990042;28;20022;-68
2022/09/04 09:35:20;;;;;;;24.33;17.48;;;36.80;70.20;;;;;;4994486;28;20033;-66
2022/09/04 09:38:24;;;;;;;21.00;16.05;;;36.80;70.50;;;;;;4995267;28;20033;-66
2022/09/04 09:41:09;;;;;;;24.52;16.63;;;37.00;70.40;;;;;;4992785;28;20038;-67
2022/09/04 09:43:45;;;;;;;24.67;17.75;;;37.00;69.20;;;;;;4994059;28;20049;-68
2022/09/04 09:46:45;;;;;;;21.73;15.98;;;37.10;68.90;;;;;;4993607;28;20080;-66
2022/09/04 09:49:57;;;;;;;21.48;16.10;;;37.00;69.60;;;;;;4977156;28;20134;-68
2022/09/04 09:52:23;;;;;;;21.73;16.83;;;37.00;69.60;;;;;;4986452;28;20057;-67
2022/09/04 09:55:20;;;;;;;22.17;16.40;;;37.10;68.80;;;;;;4993710;28;20018;-68
2022/09/04 09:58:34;;;;;;;22.63;17.70;;;37.30;69.00;;;;;;4994085;28;20026;-66
2022/09/04 10:01:19;;;;;;;21.48;15.40;;;37.80;68.30;;;;;;4989134;28;20584;-68
2022/09/04 10:04:26;;;;;;;23.70;16.13;;;38.30;67.50;;;;;;4994482;28;20048;-69
2022/09/04 10:07:23;;;;;;;20.80;14.40;;;38.60;67.00;;;;;;4985500;28;20041;-70
2022/09/04 10:10:20;;;;;;;19.50;14.30;;;39.30;66.10;;;;;;4994372;28;20050;-67
2022/09/04 10:13:14;;;;;;;18.98;13.15;;;39.60;65.50;;;;;;4994399;28;20084;-67
2022/09/04 10:15:48;;;;;;;18.80;12.90;;;40.00;64.30;;;;;;4994199;28;20089;-68
2022/09/04 10:18:53;;;;;;;20.25;14.68;;;40.00;63.50;;;;;;4993904;28;20034;-67
2022/09/04 10:21:34;;;;;;;19.98;14.23;;;40.20;63.50;;;;;;4974973;28;20026;-66
2022/09/04 10:24:37;;;;;;;20.48;14.98;;;40.10;63.70;;;;;;4973214;28;20053;-67
2022/09/04 10:27:18;;;;;;;20.58;15.40;;;40.00;63.90;;;;;;4986291;28;20052;-69
2022/09/04 10:29:50;;;;;;;20.48;15.75;;;39.90;63.80;;;;;;4992003;28;20033;-67
2022/09/04 10:32:33;;;;;;;19.80;14.07;;;39.90;63.60;;;;;;4993805;28;20488;-66
2022/09/04 10:35:40;;;;;;;21.13;15.18;;;39.70;63.90;;;;;;4994119;28;20030;-67
2022/09/04 10:38:26;;;;;;;23.25;18.00;;;39.30;64.10;;;;;;4973869;28;20389;-67
2022/09/04 10:41:13;;;;;;;18.88;15.30;;;39.00;64.20;;;;;;4991699;28;20027;-67
2022/09/04 10:43:42;;;;;;;21.63;17.70;;;38.60;64.60;;;;;;4992513;28;20384;-67
2022/09/04 10:46:17;;;;;;;22.77;17.20;;;38.30;64.70;;;;;;4993287;28;20033;-69
2022/09/04 10:48:54;;;;;;;20.08;15.30;;;37.80;65.30;;;;;;4994283;28;20026;-68
2022/09/04 10:51:33;;;;;;;18.92;14.38;;;37.60;65.90;;;;;;4993916;28;20030;-68
2022/09/04 10:54:24;;;;;;;21.67;14.27;;;37.60;65.50;;;;;;4993846;28;20029;-68
2022/09/04 10:57:09;;;;;;;20.30;14.38;;;37.40;65.60;;;;;;4993773;28;20483;-67
2022/09/04 10:59:52;;;;;;;20.02;12.02;;;37.50;65.40;;;;;;4993968;28;20069;-69
2022/09/04 11:02:38;;;;;;;18.17;13.43;;;37.40;65.20;;;;;;4993598;28;20026;-67
2022/09/04 11:05:33;;;;;;;17.88;12.60;;;37.00;65.80;;;;;;4993616;28;20061;-67
2022/09/04 11:08:15;;;;;;;21.70;16.58;;;36.40;66.70;;;;;;4993641;28;20072;-67
2022/09/04 11:10:43;;;;;;;;;;;36.10;67.70;;;;;;4993949;28;20428;-67
2022/09/04 11:13:47;;;;;;;27.88;21.50;;;36.30;68.00;;;;;;4993691;28;19901;-67
2022/09/04 11:16:39;;;;;;;29.92;23.90;;;36.90;69.20;;;;;;4952062;29;20050;-70
2022/09/04 11:19:27;;;;;;;30.63;25.47;;;37.30;68.90;;;;;;4952283;29;20410;-67
2022/09/04 11:22:01;;;;;;;30.40;23.00;;;37.10;69.10;;;;;;4984013;28;20106;-69
2022/09/04 11:25:10;;;;;;;28.13;23.92;;;36.60;69.90;;;;;;4993338;28;20041;-67
2022/09/04 11:27:58;;;;;;;27.27;22.48;;;36.10;71.00;;;;;;4997682;28;20126;-67
2022/09/04 11:30:43;;;;;;;28.33;23.83;;;35.40;72.00;;;;;;4992620;28;20104;-66
2022/09/04 11:33:32;;;;;;;29.63;23.02;;;34.90;73.10;;;;;;4992971;28;20033;-66
2022/09/04 11:36:17;;;;;;;29.25;22.45;;;34.30;73.80;;;;;;4992691;28;20410;-67
2022/09/04 11:38:55;;;;;;;29.58;23.05;;;33.80;74.80;;;;;;4990423;28;20449;-67
2022/09/04 11:41:32;;;;;;;26.80;22.90;;;33.40;75.50;;;;;;4991487;28;20041;-67
2022/09/04 11:44:33;;;;;;;29.20;23.35;;;33.10;76.30;;;;;;4992111;28;20034;-67
2022/09/04 11:47:14;;;;;;;28.30;22.58;;;32.80;77.10;;;;;;4991484;28;20030;-67
2022/09/04 11:49:48;;;;;;;27.65;21.55;;;32.50;77.70;;;;;;4991335;28;20355;-66
2022/09/04 11:52:25;;;;;;;27.45;19.60;;;32.20;78.20;;;;;;4991496;28;20037;-67
2022/09/04 11:55:19;;;;;;;26.92;20.60;;;32.00;78.90;;;;;;4992600;28;20038;-69
2022/09/04 11:57:56;;;;;;;29.00;21.33;;;31.90;79.50;;;;;;4992618;28;20457;-68
2022/09/04 12:00:22;;;;;;;26.90;19.90;;;31.90;79.70;;;;;;4992469;28;20029;-67
2022/09/04 12:03:19;;;;;;;25.27;18.48;;;32.10;79.40;;;;;;4992652;28;20035;-70
2022/09/04 12:06:08;;;;;;;26.02;19.73;;;32.90;78.00;;;;;;4990146;28;20018;-67
2022/09/04 12:09:13;;;;;;;23.00;17.38;;;33.50;77.20;;;;;;4992134;28;20033;-68
2022/09/04 12:12:00;;;;;;;24.63;17.05;;;33.60;76.10;;;;;;4986196;28;20045;-68
2022/09/04 12:14:38;;;;;;;27.00;18.80;;;33.80;76.10;;;;;;4992095;28;20117;-69
2022/09/04 12:17:14;;;;;;;26.27;19.75;;;33.80;76.10;;;;;;4992084;28;20426;-68
2022/09/04 12:20:09;;;;;;;25.88;19.50;;;33.70;76.00;;;;;;4971982;28;20124;-68
2022/09/04 12:22:53;;;;;;;25.75;17.60;;;33.40;76.20;;;;;;4964125;28;20070;-68
2022/09/04 12:25:31;;;;;;;22.33;17.17;;;33.10;76.40;;;;;;4973358;28;20031;-67
2022/09/04 12:28:26;;;;;;;24.90;17.23;;;33.10;76.80;;;;;;4986889;28;20053;-70
2022/09/04 12:31:28;;;;;;;22.08;16.23;;;32.90;76.70;;;;;;4992533;28;20050;-68
2022/09/04 12:34:11;;;;;;;22.13;14.55;;;32.70;77.00;;;;;;4991981;28;20027;-67
2022/09/04 12:37:11;;;;;;;20.92;14.82;;;32.50;77.50;;;;;;4991571;28;20026;-69
2022/09/04 12:39:51;;;;;;;20.52;13.95;;;32.50;77.30;;;;;;4989401;28;20018;-70
2022/09/04 12:42:42;;;;;;;22.15;13.85;;;32.50;77.50;;;;;;4989403;28;20038;-67
2022/09/04 12:45:17;;;;;;;24.33;15.35;;;32.50;77.70;;;;;;4991026;28;20022;-68
2022/09/04 12:48:08;;;;;;;18.98;14.00;;;32.30;77.60;;;;;;4990190;28;20019;-71
2022/09/04 12:50:51;;;;;;;21.42;14.38;;;32.20;77.80;;;;;;4995158;28;20514;-68
2022/09/04 12:53:33;;;;;;;20.20;14.73;;;32.30;77.60;;;;;;4993178;28;20026;-67
2022/09/04 12:56:18;;;;;;;18.90;13.10;;;32.50;77.10;;;;;;4993268;28;20028;-68
2022/09/04 12:59:00;;;;;;;22.02;14.63;;;32.70;77.40;;;;;;4993903;28;20023;-69
2022/09/04 13:01:40;;;;;;;20.65;13.13;;;32.70;77.10;;;;;;4993585;28;20022;-69
2022/09/04 13:04:22;;;;;;;19.73;13.32;;;32.70;77.50;;;;;;4993335;28;20480;-69
2022/09/04 13:07:13;;;;;;;19.13;13.95;;;32.70;77.50;;;;;;4993994;28;20022;-67
2022/09/04 13:10:03;;;;;;;18.92;13.38;;;32.60;77.30;;;;;;4992540;28;20050;-68
2022/09/04 13:12:37;;;;;;;19.35;12.45;;;32.50;77.50;;;;;;4993487;28;20041;-67
2022/09/04 13:15:37;;;;;;;20.23;12.82;;;32.30;77.80;;;;;;4993635;28;20093;-69
2022/09/04 13:18:30;;;;;;;18.20;12.45;;;32.10;77.70;;;;;;4984502;28;20477;-68
2022/09/04 13:21:07;;;;;;;18.90;13.35;;;31.80;77.80;;;;;;4991671;28;20050;-69
2022/09/04 13:23:39;;;;;;;17.98;13.05;;;31.60;78.00;;;;;;4994487;28;20038;-67
2022/09/04 13:26:41;;;;;;;20.88;13.90;;;31.40;78.60;;;;;;4994918;28;20022;-68
2022/09/04 13:29:42;;;;;;;20.73;13.82;;;31.10;79.20;;;;;;4992580;28;20360;-67
2022/09/04 13:32:39;;;;;;;19.65;13.82;;;31.00;79.60;;;;;;4970916;28;20543;-67
2022/09/04 13:35:30;;;;;;;18.92;12.57;;;31.00;79.90;;;;;;4968940;28;20058;-67
2022/09/04 13:38:18;;;;;;;20.95;11.80;;;31.00;80.00;;;;;;4993253;28;20022;-72
2022/09/04 13:41:04;;;;;;;19.30;12.45;;;31.10;80.00;;;;;;4991526;28;20053;-69
2022/09/04 13:43:48;;;;;;;20.02;13.52;;;31.20;79.90;;;;;;4970473;28;20114;-66
2022/09/04 13:46:19;;;;;;;21.60;13.85;;;31.40;79.70;;;;;;4993027;28;20161;-66
2022/09/04 13:48:59;;;;;;;18.83;12.77;;;31.40;79.60;;;;;;4986337;28;20376;-67
2022/09/04 13:51:33;;;;;;;20.23;13.13;;;31.60;79.60;;;;;;4991960;28;20030;-65
2022/09/04 13:54:11;;;;;;;17.95;11.75;;;31.70;79.70;;;;;;4994165;28;20026;-68
2022/09/04 13:57:15;;;;;;;16.73;11.65;;;31.80;79.50;;;;;;4994465;28;20030;-67
2022/09/04 13:59:45;;;;;;;18.15;12.25;;;31.80;79.40;;;;;;4993237;28;20018;-67
2022/09/04 14:02:13;;;;;;;18.15;11.65;;;32.00;79.20;;;;;;4993852;28;20018;-67
2022/09/04 14:04:49;;;;;;;18.83;12.02;;;32.00;79.20;;;;;;4993715;28;20030;-67
2022/09/04 14:07:30;;;;;;;20.95;12.45;;;32.00;79.00;;;;;;4993918;28;20026;-68